createdAt,value
2023-03-24T00:01:12.124Z,98610.00
2023-03-24T00:03:40.431Z,98616.50
2023-03-24T00:06:09.447Z,98615.09
2023-03-24T00:08:38.600Z,98602.41
2023-03-24T00:11:11.723Z,98614.50
2023-03-24T00:13:40.957Z,98616.13
2023-03-24T00:16:11.744Z,98628.22
2023-03-24T00:18:40.781Z,98633.91
2023-03-24T00:21:11.794Z,98631.69
2023-03-24T00:23:43.850Z,98631.03
2023-03-24T00:26:15.651Z,98637.91
2023-03-24T00:28:46.501Z,98627.41
2023-03-24T00:31:16.043Z,98621.72
2023-03-24T00:33:48.197Z,98634.84
2023-03-24T00:36:17.159Z,98643.97
2023-03-24T00:38:47.742Z,98659.75
2023-03-24T00:41:20.508Z,98639.53
2023-03-24T00:43:50.418Z,98632.06
2023-03-24T00:46:29.288Z,98630.44
2023-03-24T00:49:02.797Z,98635.88
2023-03-24T00:51:33.352Z,98629.03
2023-03-24T00:54:02.187Z,98639.13
2023-03-24T00:56:34.143Z,98618.91
2023-03-24T00:59:02.674Z,98617.72
2023-03-24T01:01:35.386Z,98634.69
2023-03-24T01:04:06.197Z,98639.75
2023-03-24T01:06:36.788Z,98633.47
2023-03-24T01:09:05.912Z,98636.28
2023-03-24T01:11:40.094Z,98646.16
2023-03-24T01:14:09.953Z,98653.06
2023-03-24T01:16:38.828Z,98650.00
2023-03-24T01:19:09.361Z,98636.50
2023-03-24T01:21:38.263Z,98647.38
2023-03-24T01:24:07.854Z,98641.75
2023-03-24T01:26:37.999Z,98649.41
2023-03-24T01:29:06.261Z,98638.69
2023-03-24T01:31:34.491Z,98645.75
2023-03-24T01:34:02.759Z,98652.78
2023-03-24T01:36:31.529Z,98650.59
2023-03-24T01:39:01.295Z,98648.16
2023-03-24T01:41:32.904Z,98647.13
2023-03-24T01:44:02.651Z,98652.38
2023-03-24T01:46:33.551Z,98658.63
2023-03-24T01:49:04.406Z,98667.13
2023-03-24T01:51:36.379Z,98668.72
2023-03-24T01:54:12.304Z,98673.38
2023-03-24T01:56:50.544Z,98663.69
2023-03-24T01:59:26.361Z,98676.84
2023-03-24T02:02:02.918Z,98671.75
2023-03-24T02:04:34.770Z,98685.25
2023-03-24T02:07:09.283Z,98684.25
2023-03-24T02:09:37.529Z,98684.66
2023-03-24T02:12:06.303Z,98675.38
2023-03-24T02:14:36.137Z,98677.81
2023-03-24T02:17:24.163Z,98679.03
2023-03-24T02:20:27.909Z,98686.72
2023-03-24T02:23:26.463Z,98682.28
2023-03-24T02:26:20.794Z,98687.53
2023-03-24T02:28:57.753Z,98685.88
2023-03-24T02:32:04.138Z,98670.56
2023-03-24T02:34:58.265Z,98685.50
2023-03-24T02:37:44.025Z,98693.59
2023-03-24T02:40:25.613Z,98684.72
2023-03-24T02:43:07.037Z,98691.19
2023-03-24T02:45:38.454Z,98688.94
2023-03-24T02:48:23.476Z,98683.50
2023-03-24T02:50:57.527Z,98683.06
2023-03-24T02:53:33.398Z,98673.19
2023-03-24T02:56:12.524Z,98680.88
2023-03-24T02:58:47.673Z,98676.44
2023-03-24T03:01:18.843Z,98687.94
2023-03-24T03:03:51.839Z,98689.56
2023-03-24T03:06:25.145Z,98692.78
2023-03-24T03:08:56.583Z,98696.84
2023-03-24T03:11:26.581Z,98695.84
2023-03-24T03:14:00.679Z,98696.25
2023-03-24T03:16:38.680Z,98695.22
2023-03-24T03:19:12.220Z,98687.16
2023-03-24T03:21:44.035Z,98697.28
2023-03-24T03:24:16.643Z,98698.47
2023-03-24T03:26:49.516Z,98707.97
2023-03-24T03:29:22.318Z,98690.38
2023-03-24T03:31:59.253Z,98691.22
2023-03-24T03:34:39.038Z,98699.47
2023-03-24T03:37:12.371Z,98675.81
2023-03-24T03:39:46.647Z,98681.06
2023-03-24T03:42:16.637Z,98687.34
2023-03-24T03:44:45.026Z,98690.59
2023-03-24T03:47:13.285Z,98679.66
2023-03-24T03:49:41.468Z,98679.47
2023-03-24T03:52:09.885Z,98681.06
2023-03-24T03:54:40.111Z,98677.66
2023-03-24T03:57:08.720Z,98681.69
2023-03-24T03:59:39.966Z,98688.56
2023-03-24T04:02:24.444Z,98687.34
2023-03-24T04:05:22.259Z,98681.69
2023-03-24T04:08:16.614Z,98682.88
2023-03-24T04:11:12.881Z,98687.34
2023-03-24T04:13:51.073Z,98685.69
2023-03-24T04:16:28.505Z,98668.09
2023-03-24T04:19:11.366Z,98683.06
2023-03-24T04:21:58.576Z,98678.63
2023-03-24T04:24:40.399Z,98684.88
2023-03-24T04:27:14.799Z,98680.22
2023-03-24T04:29:53.195Z,98676.97
2023-03-24T04:32:32.610Z,98690.31
2023-03-24T04:35:05.796Z,98687.88
2023-03-24T04:37:38.254Z,98697.19
2023-03-24T04:40:10.400Z,98699.19
2023-03-24T04:42:42.458Z,98687.06
2023-03-24T04:45:12.399Z,98688.66
2023-03-24T04:47:47.534Z,98687.25
2023-03-24T04:50:30.467Z,98689.31
2023-03-24T04:52:59.261Z,98695.97
2023-03-24T04:56:00.082Z,98694.56
2023-03-24T04:58:28.493Z,98685.88
2023-03-24T05:00:58.839Z,98700.03
2023-03-24T05:03:28.697Z,98694.78
2023-03-24T05:05:56.966Z,98682.84
2023-03-24T05:08:25.345Z,98696.38
2023-03-24T05:10:53.501Z,98700.03
2023-03-24T05:13:21.675Z,98706.31
2023-03-24T05:15:50.087Z,98710.72
2023-03-24T05:18:18.232Z,98711.34
2023-03-24T05:20:47.863Z,98711.53
2023-03-24T05:23:16.277Z,98714.56
2023-03-24T05:25:44.574Z,98712.56
2023-03-24T05:28:12.865Z,98716.59
2023-03-24T05:30:41.145Z,98720.44
2023-03-24T05:33:09.394Z,98711.34
2023-03-24T05:35:37.651Z,98710.53
2023-03-24T05:38:07.355Z,98729.53
2023-03-24T05:40:35.492Z,98721.06
2023-03-24T05:43:03.709Z,98726.31
2023-03-24T05:45:31.972Z,98730.97
2023-03-24T05:48:00.105Z,98730.34
2023-03-24T05:50:28.397Z,98727.13
2023-03-24T05:52:56.788Z,98728.72
2023-03-24T05:55:26.390Z,98734.16
2023-03-24T05:57:55.679Z,98724.88
2023-03-24T06:00:24.765Z,98728.91
2023-03-24T06:02:53.005Z,98729.88
2023-03-24T06:05:21.492Z,98738.38
2023-03-24T06:07:49.848Z,98731.09
2023-03-24T06:10:18.617Z,98731.47
2023-03-24T06:12:48.302Z,98721.81
2023-03-24T06:15:17.701Z,98727.88
2023-03-24T06:17:47.939Z,98734.72
2023-03-24T06:20:18.425Z,98739.38
2023-03-24T06:22:47.913Z,98733.94
2023-03-24T06:25:18.033Z,98738.38
2023-03-24T06:27:47.781Z,98730.06
2023-03-24T06:30:17.902Z,98725.81
2023-03-24T06:32:47.533Z,98723.59
2023-03-24T06:35:17.152Z,98734.97
2023-03-24T06:37:45.608Z,98742.44
2023-03-24T06:40:15.367Z,98737.19
2023-03-24T06:42:44.290Z,98745.47
2023-03-24T06:45:14.058Z,98750.50
2023-03-24T06:47:42.433Z,98746.06
2023-03-24T06:50:11.778Z,98759.78
2023-03-24T06:52:39.893Z,98760.19
2023-03-24T06:55:09.558Z,98750.28
2023-03-24T06:57:37.806Z,98757.72
2023-03-24T07:00:08.876Z,98753.09
2023-03-24T07:02:38.883Z,98762.97
2023-03-24T07:05:09.014Z,98767.00
2023-03-24T07:08:23.645Z,98773.84
2023-03-24T07:10:25.782Z,98766.75
2023-03-24T07:12:53.924Z,98767.94
2023-03-24T07:15:22.177Z,98759.63
2023-03-24T07:17:51.855Z,98768.50
2023-03-24T07:20:20.840Z,98768.06
2023-03-24T07:22:49.040Z,98773.72
2023-03-24T07:25:20.495Z,98764.41
2023-03-24T07:27:48.714Z,98753.88
2023-03-24T07:30:19.170Z,98770.06
2023-03-24T07:32:49.381Z,98771.44
2023-03-24T07:35:19.435Z,98770.41
2023-03-24T07:37:47.624Z,98765.94
2023-03-24T07:40:16.310Z,98760.44
2023-03-24T07:42:45.003Z,98757.22
2023-03-24T07:45:14.128Z,98759.84
2023-03-24T07:47:45.774Z,98771.81
2023-03-24T07:50:15.669Z,98765.97
2023-03-24T07:52:51.130Z,98758.28
2023-03-24T07:55:19.479Z,98767.13
2023-03-24T07:57:48.903Z,98772.41
2023-03-24T08:00:23.116Z,98763.88
2023-03-24T08:02:53.695Z,98769.53
2023-03-24T08:05:25.076Z,98774.41
2023-03-24T08:07:55.888Z,98770.78
2023-03-24T08:10:26.323Z,98775.44
2023-03-24T08:12:54.540Z,98766.72
2023-03-24T08:15:22.687Z,98776.22
2023-03-24T08:17:51.921Z,98759.63
2023-03-24T08:20:21.450Z,98764.25
2023-03-24T08:22:50.861Z,98746.03
2023-03-24T08:25:23.238Z,98760.41
2023-03-24T08:27:51.933Z,98763.44
2023-03-24T08:30:22.199Z,98767.09
2023-03-24T08:32:52.683Z,98775.59
2023-03-24T08:35:23.663Z,98771.53
2023-03-24T08:37:52.901Z,98771.25
2023-03-24T08:40:25.547Z,98782.63
2023-03-24T08:42:55.957Z,98763.06
2023-03-24T08:45:27.615Z,98772.16
2023-03-24T08:47:56.941Z,98759.13
2023-03-24T08:50:28.467Z,98759.22
2023-03-24T08:52:57.821Z,98758.06
2023-03-24T08:55:28.692Z,98752.94
2023-03-24T08:57:57.469Z,98757.69
2023-03-24T09:00:26.180Z,98759.59
2023-03-24T09:02:55.961Z,98767.59
2023-03-24T09:05:40.789Z,98761.34
2023-03-24T09:08:12.931Z,98762.31
2023-03-24T09:10:43.174Z,98764.09
2023-03-24T09:13:11.930Z,98758.97
2023-03-24T09:15:40.276Z,98765.31
2023-03-24T09:18:08.735Z,98774.66
2023-03-24T09:20:37.344Z,98775.72
2023-03-24T09:23:05.740Z,98771.22
2023-03-24T09:25:33.934Z,98760.09
2023-03-24T09:28:03.607Z,98768.81
2023-03-24T09:30:46.738Z,98778.34
2023-03-24T09:33:15.513Z,98765.38
2023-03-24T09:35:43.824Z,98774.88
2023-03-24T09:38:12.467Z,98763.84
2023-03-24T09:40:43.745Z,98761.53
2023-03-24T09:43:24.914Z,98770.03
2023-03-24T09:45:55.933Z,98763.59
2023-03-24T09:48:32.914Z,98770.81
2023-03-24T09:51:05.398Z,98764.84
2023-03-24T09:53:40.594Z,98760.22
2023-03-24T09:56:14.792Z,98747.72
2023-03-24T09:58:49.085Z,98741.44
2023-03-24T10:01:19.064Z,98741.31
2023-03-24T10:03:48.024Z,98741.28
2023-03-24T10:06:23.313Z,98738.41
2023-03-24T10:08:59.963Z,98730.06
2023-03-24T10:11:35.375Z,98730.88
2023-03-24T10:14:19.007Z,98736.91
2023-03-24T10:16:55.596Z,98740.97
2023-03-24T10:19:36.949Z,98738.66
2023-03-24T10:22:13.143Z,98739.13
2023-03-24T10:24:50.765Z,98735.81
2023-03-24T10:27:26.955Z,98734.09
2023-03-24T10:30:03.063Z,98733.63
2023-03-24T10:32:36.388Z,98737.97
2023-03-24T10:35:10.104Z,98741.44
2023-03-24T10:37:38.919Z,98733.63
2023-03-24T10:40:18.057Z,98724.91
2023-03-24T10:42:48.754Z,98733.94
2023-03-24T10:45:30.105Z,98727.81
2023-03-24T10:48:01.237Z,98720.25
2023-03-24T10:50:32.027Z,98712.16
2023-03-24T10:53:00.135Z,98707.97
2023-03-24T10:55:32.633Z,98705.72
2023-03-24T10:58:02.144Z,98702.84
2023-03-24T11:00:33.574Z,98716.03
2023-03-24T11:03:05.480Z,98702.44
2023-03-24T11:05:36.479Z,98702.69
2023-03-24T11:08:28.672Z,98696.28
2023-03-24T11:10:57.403Z,98685.47
2023-03-24T11:13:31.446Z,98686.81
2023-03-24T11:16:10.858Z,98682.63
2023-03-24T11:18:39.327Z,98672.03
2023-03-24T11:21:08.333Z,98683.75
2023-03-24T11:23:40.265Z,98672.69
2023-03-24T11:26:13.418Z,98663.75
2023-03-24T11:28:44.613Z,98649.63
2023-03-24T11:31:24.673Z,98633.44
2023-03-24T11:33:58.668Z,98658.81
2023-03-24T11:36:45.380Z,98673.31
2023-03-24T11:39:19.322Z,98687.41
2023-03-24T11:42:02.251Z,98687.31
2023-03-24T11:44:33.598Z,98657.59
2023-03-24T11:47:07.584Z,98674.84
2023-03-24T11:49:41.423Z,98649.03
2023-03-24T11:52:21.982Z,98645.59
2023-03-24T11:54:50.273Z,98636.22
2023-03-24T11:57:29.550Z,98638.75
2023-03-24T12:00:01.982Z,98617.31
2023-03-24T12:02:49.361Z,98619.72
2023-03-24T12:05:31.570Z,98627.22
2023-03-24T12:08:24.371Z,98609.00
2023-03-24T12:11:02.162Z,98614.31
2023-03-24T12:13:36.658Z,98604.19
2023-03-24T12:16:26.517Z,98606.16
2023-03-24T12:19:15.081Z,98585.44
2023-03-24T12:21:56.114Z,98591.28
2023-03-24T12:24:32.975Z,98598.44
2023-03-24T12:27:02.326Z,98591.00
2023-03-24T12:29:48.938Z,98579.56
2023-03-24T12:32:38.155Z,98603.00
2023-03-24T12:35:41.412Z,98577.63
2023-03-24T12:38:21.234Z,98585.22
2023-03-24T12:41:06.948Z,98578.66
2023-03-24T12:43:48.756Z,98589.88
2023-03-24T12:46:46.549Z,98577.78
2023-03-24T12:49:36.772Z,98566.94
2023-03-24T12:52:20.122Z,98574.47
2023-03-24T12:54:56.583Z,98586.63
2023-03-24T12:57:28.508Z,98597.19
2023-03-24T13:00:08.495Z,98577.13
2023-03-24T13:02:41.108Z,98579.25
2023-03-24T13:05:16.952Z,98582.97
2023-03-24T13:07:47.598Z,98579.66
2023-03-24T13:10:21.866Z,98577.47
2023-03-24T13:12:56.586Z,98566.63
2023-03-24T13:15:30.091Z,98565.88
2023-03-24T13:18:18.757Z,98552.69
2023-03-24T13:20:50.333Z,98540.56
2023-03-24T13:23:35.889Z,98529.88
2023-03-24T13:26:11.891Z,98543.84
2023-03-24T13:28:48.352Z,98545.53
2023-03-24T13:31:18.795Z,98543.25
2023-03-24T13:33:47.402Z,98538.28
2023-03-24T13:36:33.113Z,98559.63
2023-03-24T13:39:06.832Z,98594.59
2023-03-24T13:41:39.842Z,98569.75
2023-03-24T13:44:10.822Z,98567.38
2023-03-24T13:46:42.255Z,98573.38
2023-03-24T13:49:15.600Z,98562.28
2023-03-24T13:51:46.709Z,98580.03
2023-03-24T13:54:18.477Z,98593.13
2023-03-24T13:56:54.380Z,98600.44
2023-03-24T13:59:28.361Z,98588.22
2023-03-24T14:02:22.534Z,98595.84
2023-03-24T14:05:03.099Z,98603.34
2023-03-24T14:07:34.336Z,98600.34
2023-03-24T14:10:13.002Z,98598.31
2023-03-24T14:12:54.500Z,98602.25
2023-03-24T14:15:27.386Z,98617.97
2023-03-24T14:17:57.816Z,98610.56
2023-03-24T14:20:30.489Z,98620.97
2023-03-24T14:22:58.825Z,98588.75
2023-03-24T14:25:30.792Z,98569.31
2023-03-24T14:28:21.251Z,98567.91
2023-03-24T14:31:15.591Z,98609.84
2023-03-24T14:34:02.260Z,98609.47
2023-03-24T14:36:32.939Z,98585.47
2023-03-24T14:39:13.786Z,98568.78
2023-03-24T14:41:44.472Z,98571.06
2023-03-24T14:44:14.382Z,98564.41
2023-03-24T14:46:44.602Z,98555.91
2023-03-24T14:49:25.546Z,98551.44
2023-03-24T14:52:01.818Z,98555.47
2023-03-24T14:54:40.028Z,98566.47
2023-03-24T14:57:11.485Z,98557.50
2023-03-24T14:59:49.896Z,98547.88
2023-03-24T15:02:29.031Z,98556.91
2023-03-24T15:05:26.515Z,98543.50
2023-03-24T15:08:10.417Z,98550.84
2023-03-24T15:10:43.441Z,98543.34
2023-03-24T15:13:37.088Z,98540.06
2023-03-24T15:16:18.039Z,98536.00
2023-03-24T15:18:59.973Z,98548.19
2023-03-24T15:21:34.185Z,98555.53
2023-03-24T15:24:03.913Z,98534.28
2023-03-24T15:26:33.466Z,98532.69
2023-03-24T15:29:04.110Z,98553.28
2023-03-24T15:31:34.629Z,98548.91
2023-03-24T15:34:07.977Z,98547.00
2023-03-24T15:36:45.780Z,98529.91
2023-03-24T15:39:22.522Z,98557.47
2023-03-24T15:41:53.339Z,98563.22
2023-03-24T15:44:25.487Z,98565.06
2023-03-24T15:46:57.611Z,98574.81
2023-03-24T15:49:28.374Z,98565.63
2023-03-24T15:52:00.679Z,98557.59
2023-03-24T15:54:32.228Z,98559.44
2023-03-24T15:57:01.440Z,98563.81
2023-03-24T15:59:36.841Z,98542.81
2023-03-24T16:02:17.556Z,98536.84
2023-03-24T16:04:54.378Z,98539.94
2023-03-24T16:07:33.460Z,98529.41
2023-03-24T16:10:06.198Z,98521.19
2023-03-24T16:12:36.145Z,98549.53
2023-03-24T16:15:05.859Z,98537.84
2023-03-24T16:17:35.545Z,98560.66
2023-03-24T16:20:09.032Z,98538.72
2023-03-24T16:22:37.202Z,98536.75
2023-03-24T16:25:06.392Z,98527.84
2023-03-24T16:27:34.561Z,98538.72
2023-03-24T16:30:02.940Z,98537.91
2023-03-24T16:32:31.093Z,98543.19
2023-03-24T16:35:00.684Z,98523.69
2023-03-24T16:37:28.854Z,98517.53
2023-03-24T16:39:57.046Z,98549.75
2023-03-24T16:42:25.130Z,98535.59
2023-03-24T16:44:53.318Z,98532.03
2023-03-24T16:47:22.624Z,98541.09
2023-03-24T16:49:50.771Z,98550.00
2023-03-24T16:52:20.447Z,98556.78
2023-03-24T16:54:50.681Z,98563.97
2023-03-24T16:57:18.759Z,98559.25
2023-03-24T16:59:46.832Z,98557.22
2023-03-24T17:02:14.986Z,98552.50
2023-03-24T17:04:44.654Z,98561.63
2023-03-24T17:07:12.826Z,98568.88
2023-03-24T17:09:42.505Z,98558.81
2023-03-24T17:12:10.886Z,98580.41
2023-03-24T17:14:39.148Z,98562.28
2023-03-24T17:17:11.699Z,98568.72
2023-03-24T17:19:42.098Z,98562.03
2023-03-24T17:22:11.755Z,98598.00
2023-03-24T17:24:42.412Z,98574.84
2023-03-24T17:27:14.100Z,98570.91
2023-03-24T17:29:42.236Z,98589.59
2023-03-24T17:32:10.726Z,98596.13
2023-03-24T17:34:39.061Z,98629.09
2023-03-24T17:37:07.389Z,98606.34
2023-03-24T17:39:35.752Z,98596.63
2023-03-24T17:42:05.772Z,98610.81
2023-03-24T17:44:34.933Z,98601.28
2023-03-24T17:47:03.263Z,98606.19
2023-03-24T17:49:31.725Z,98611.69
2023-03-24T17:51:59.892Z,98621.84
2023-03-24T17:54:28.257Z,98609.63
2023-03-24T17:56:56.546Z,98631.94
2023-03-24T17:59:26.571Z,98640.91
2023-03-24T18:01:54.806Z,98624.91
2023-03-24T18:04:23.955Z,98655.31
2023-03-24T18:06:52.141Z,98656.97
2023-03-24T18:09:20.333Z,98638.72
2023-03-24T18:11:48.703Z,98657.59
2023-03-24T18:14:18.781Z,98651.97
2023-03-24T18:16:48.306Z,98659.47
2023-03-24T18:19:16.511Z,98660.50
2023-03-24T18:21:45.511Z,98641.66
2023-03-24T18:24:13.852Z,98656.03
2023-03-24T18:26:42.181Z,98665.59
2023-03-24T18:29:10.890Z,98665.59
2023-03-24T18:31:39.076Z,98664.34
2023-03-24T18:34:08.738Z,98670.41
2023-03-24T18:36:36.882Z,98668.88
2023-03-24T18:39:07.773Z,98665.91
2023-03-24T18:41:37.284Z,98673.44
2023-03-24T18:44:07.407Z,98651.34
2023-03-24T18:46:35.639Z,98672.41
2023-03-24T18:49:04.078Z,98675.44
2023-03-24T18:51:35.752Z,98692.31
2023-03-24T18:54:04.182Z,98688.44
2023-03-24T18:56:32.395Z,98704.22
2023-03-24T18:59:00.854Z,98712.94
2023-03-24T19:01:30.394Z,98711.31
2023-03-24T19:03:58.691Z,98728.31
2023-03-24T19:06:31.320Z,98725.69
2023-03-24T19:09:01.189Z,98720.63
2023-03-24T19:11:29.836Z,98735.03
2023-03-24T19:13:59.449Z,98740.28
2023-03-24T19:16:27.665Z,98757.28
2023-03-24T19:18:57.904Z,98755.72
2023-03-24T19:21:27.651Z,98760.75
2023-03-24T19:23:57.127Z,98741.94
2023-03-24T19:26:26.920Z,98756.91
2023-03-24T19:28:55.609Z,98763.78
2023-03-24T19:31:23.742Z,98763.78
2023-03-24T19:33:54.354Z,98770.47
2023-03-24T19:36:22.571Z,98768.69
2023-03-24T19:38:51.058Z,98785.66
2023-03-24T19:41:19.338Z,98767.03
2023-03-24T19:43:48.923Z,98782.41
2023-03-24T19:46:21.068Z,98785.25
2023-03-24T19:48:49.302Z,98774.94
2023-03-24T19:51:18.596Z,98782.81
2023-03-24T19:53:46.789Z,98797.41
2023-03-24T19:56:17.496Z,98818.03
2023-03-24T19:58:45.780Z,98808.75
2023-03-24T20:01:15.688Z,98813.97
2023-03-24T20:03:44.004Z,98813.78
2023-03-24T20:06:12.341Z,98828.53
2023-03-24T20:08:40.973Z,98825.09
2023-03-24T20:11:09.583Z,98824.44
2023-03-24T20:13:37.871Z,98820.38
2023-03-24T20:16:06.661Z,98816.38
2023-03-24T20:18:36.820Z,98826.25
2023-03-24T20:21:06.463Z,98834.16
2023-03-24T20:23:34.635Z,98850.13
2023-03-24T20:26:03.238Z,98850.97
2023-03-24T20:28:31.661Z,98847.09
2023-03-24T20:31:01.957Z,98839.38
2023-03-24T20:33:30.341Z,98859.84
2023-03-24T20:36:00.426Z,98868.94
2023-03-24T20:38:28.650Z,98871.91
2023-03-24T20:41:00.794Z,98887.53
2023-03-24T20:43:31.050Z,98887.25
2023-03-24T20:45:59.158Z,98884.03
2023-03-24T20:48:27.785Z,98884.03
2023-03-24T20:50:56.276Z,98893.53
2023-03-24T20:53:27.377Z,98885.25
2023-03-24T20:55:59.957Z,98908.53
2023-03-24T20:58:28.693Z,98903.25
2023-03-24T21:00:57.299Z,98899.84
2023-03-24T21:03:26.436Z,98899.25
2023-03-24T21:05:54.963Z,98908.13
2023-03-24T21:08:23.123Z,98901.66
2023-03-24T21:10:56.458Z,98912.63
2023-03-24T21:13:24.708Z,98912.63
2023-03-24T21:15:53.125Z,98933.84
2023-03-24T21:18:21.320Z,98933.03
2023-03-24T21:20:55.319Z,98934.44
2023-03-24T21:23:24.002Z,98942.72
2023-03-24T21:25:53.644Z,98939.50
2023-03-24T21:28:21.749Z,98949.84
2023-03-24T21:30:49.888Z,98947.41
2023-03-24T21:33:17.982Z,98950.66
2023-03-24T21:35:46.637Z,98968.03
2023-03-24T21:38:16.065Z,98962.38
2023-03-24T21:40:44.584Z,98976.56
2023-03-24T21:43:15.001Z,98976.16
2023-03-24T21:45:46.131Z,98990.09
2023-03-24T21:48:16.306Z,98983.84
2023-03-24T21:50:45.816Z,99000.44
2023-03-24T21:53:15.973Z,99004.69
2023-03-24T21:55:51.407Z,99000.66
2023-03-24T21:58:21.698Z,99004.28
2023-03-24T22:00:52.319Z,99011.75
2023-03-24T22:03:21.778Z,99006.94
2023-03-24T22:05:50.233Z,99018.44
2023-03-24T22:08:22.664Z,99028.56
2023-03-24T22:10:54.379Z,99033.81
2023-03-24T22:13:23.997Z,99038.47
2023-03-24T22:15:56.310Z,99048.78
2023-03-24T22:18:24.927Z,99044.34
2023-03-24T22:20:57.093Z,99047.59
2023-03-24T22:23:25.312Z,99065.19
2023-03-24T22:25:53.969Z,99068.00
2023-03-24T22:28:23.598Z,99075.50
2023-03-24T22:30:51.705Z,99087.44
2023-03-24T22:33:19.931Z,99088.03
2023-03-24T22:35:48.311Z,99077.13
2023-03-24T22:38:17.413Z,99091.06
2023-03-24T22:40:45.490Z,99089.66
2023-03-24T22:43:13.631Z,99094.31
2023-03-24T22:45:43.544Z,99096.34
2023-03-24T22:48:12.859Z,99108.47
2023-03-24T22:50:42.399Z,99104.00
2023-03-24T22:53:10.923Z,99117.97
2023-03-24T22:55:42.136Z,99116.56
2023-03-24T22:58:10.894Z,99122.22
2023-03-24T23:00:39.051Z,99121.41
2023-03-24T23:03:09.579Z,99131.53
2023-03-24T23:05:41.482Z,99124.25
2023-03-24T23:08:11.681Z,99156.19
2023-03-24T23:10:40.864Z,99157.63
2023-03-24T23:13:10.622Z,99157.63
2023-03-24T23:15:39.264Z,99156.19
2023-03-24T23:18:09.062Z,99158.22
2023-03-24T23:20:37.707Z,99163.09
2023-03-24T23:23:07.084Z,99174.00
2023-03-24T23:25:40.305Z,99179.06
2023-03-24T23:28:08.477Z,99181.50
2023-03-24T23:30:37.284Z,99179.06
2023-03-24T23:33:05.539Z,99191.81
2023-03-24T23:35:35.989Z,99197.88
2023-03-24T23:38:05.532Z,99203.94
2023-03-24T23:40:33.823Z,99203.13
2023-03-24T23:43:03.321Z,99204.34
2023-03-24T23:45:31.503Z,99203.53
2023-03-24T23:47:59.916Z,99222.38
2023-03-24T23:50:29.302Z,99219.53
2023-03-24T23:52:59.244Z,99228.03
2023-03-24T23:55:28.100Z,99224.19
2023-03-24T23:57:56.707Z,99233.72
